Terminal Aerodrome Forecast
Issued by NWS Sterling, VA

Home | Current Version | Previous Version | Text Only | Print | Product List | Glossary On
Versions: 1 2 3 4 5 6 7 8 9 10 11 12 13
516
FTUS41 KLWX 211720
TAFMRB
TAF
KMRB 211720Z 2118/2218 15007KT P6SM SCT050 BKN200
     FM212300 VRB03KT P6SM BKN090 OVC200
     FM221600 17005KT P6SM SCT050 SCT130=

USA.gov is the U.S. government's official web portal to all federal, state and local government web resources and services.